sensor_id;sensor_type;location;lat;lon;timestamp;P1;durP1;ratioP1;P2;durP2;ratioP2
14748;SDS011;7466;53.574;9.976;2023-11-21T00:01:46;34.87;;;19.07;;
14748;SDS011;7466;53.574;9.976;2023-11-21T00:04:13;32.63;;;17.20;;
14748;SDS011;7466;53.574;9.976;2023-11-21T00:06:41;24.30;;;15.10;;
14748;SDS011;7466;53.574;9.976;2023-11-21T00:09:11;24.87;;;15.43;;
14748;SDS011;7466;53.574;9.976;2023-11-21T00:11:40;22.77;;;14.60;;
14748;SDS011;7466;53.574;9.976;2023-11-21T00:14:07;27.50;;;16.77;;
14748;SDS011;7466;53.574;9.976;2023-11-21T00:16:34;25.60;;;15.40;;
14748;SDS011;7466;53.574;9.976;2023-11-21T00:19:01;26.87;;;16.30;;
14748;SDS011;7466;53.574;9.976;2023-11-21T00:21:27;29.23;;;17.33;;
14748;SDS011;7466;53.574;9.976;2023-11-21T00:23:55;25.93;;;16.47;;
14748;SDS011;7466;53.574;9.976;2023-11-21T00:26:22;28.00;;;16.80;;
14748;SDS011;7466;53.574;9.976;2023-11-21T00:28:50;18.97;;;14.33;;
14748;SDS011;7466;53.574;9.976;2023-11-21T00:31:16;18.83;;;14.03;;
14748;SDS011;7466;53.574;9.976;2023-11-21T00:33:43;21.10;;;14.90;;
14748;SDS011;7466;53.574;9.976;2023-11-21T00:36:10;19.50;;;14.13;;
14748;SDS011;7466;53.574;9.976;2023-11-21T00:38:37;19.50;;;14.27;;
14748;SDS011;7466;53.574;9.976;2023-11-21T00:41:06;19.47;;;14.43;;
14748;SDS011;7466;53.574;9.976;2023-11-21T00:43:33;18.47;;;14.27;;
14748;SDS011;7466;53.574;9.976;2023-11-21T00:45:59;22.60;;;15.73;;
14748;SDS011;7466;53.574;9.976;2023-11-21T00:48:29;21.27;;;14.70;;
14748;SDS011;7466;53.574;9.976;2023-11-21T00:50:56;24.23;;;16.37;;
14748;SDS011;7466;53.574;9.976;2023-11-21T00:53:23;21.53;;;15.30;;
14748;SDS011;7466;53.574;9.976;2023-11-21T00:55:49;19.93;;;15.23;;
14748;SDS011;7466;53.574;9.976;2023-11-21T00:58:18;25.10;;;15.67;;
14748;SDS011;7466;53.574;9.976;2023-11-21T01:00:45;23.47;;;16.23;;
14748;SDS011;7466;53.574;9.976;2023-11-21T01:05:43;26.77;;;17.60;;
14748;SDS011;7466;53.574;9.976;2023-11-21T01:08:10;26.87;;;17.33;;
14748;SDS011;7466;53.574;9.976;2023-11-21T01:10:37;37.03;;;20.07;;
14748;SDS011;7466;53.574;9.976;2023-11-21T01:13:04;29.03;;;17.80;;
14748;SDS011;7466;53.574;9.976;2023-11-21T01:15:33;32.53;;;19.20;;
14748;SDS011;7466;53.574;9.976;2023-11-21T01:18:00;30.67;;;19.30;;
14748;SDS011;7466;53.574;9.976;2023-11-21T01:20:27;36.10;;;20.37;;
14748;SDS011;7466;53.574;9.976;2023-11-21T01:22:53;33.47;;;20.13;;
14748;SDS011;7466;53.574;9.976;2023-11-21T01:25:20;32.13;;;20.00;;
14748;SDS011;7466;53.574;9.976;2023-11-21T01:27:47;29.97;;;19.20;;
14748;SDS011;7466;53.574;9.976;2023-11-21T01:30:14;33.40;;;20.27;;
14748;SDS011;7466;53.574;9.976;2023-11-21T01:32:42;28.00;;;18.47;;
14748;SDS011;7466;53.574;9.976;2023-11-21T01:35:09;27.40;;;18.30;;
14748;SDS011;7466;53.574;9.976;2023-11-21T01:37:36;29.07;;;18.67;;
14748;SDS011;7466;53.574;9.976;2023-11-21T01:40:03;30.23;;;18.17;;
14748;SDS011;7466;53.574;9.976;2023-11-21T01:42:34;23.70;;;17.47;;
14748;SDS011;7466;53.574;9.976;2023-11-21T01:45:01;22.93;;;16.23;;
14748;SDS011;7466;53.574;9.976;2023-11-21T01:47:30;22.20;;;16.47;;
14748;SDS011;7466;53.574;9.976;2023-11-21T01:49:58;22.60;;;16.40;;
14748;SDS011;7466;53.574;9.976;2023-11-21T01:52:25;21.07;;;14.63;;
14748;SDS011;7466;53.574;9.976;2023-11-21T01:54:52;19.60;;;15.60;;
14748;SDS011;7466;53.574;9.976;2023-11-21T01:57:19;20.17;;;14.67;;
14748;SDS011;7466;53.574;9.976;2023-11-21T01:59:47;17.40;;;14.57;;
14748;SDS011;7466;53.574;9.976;2023-11-21T02:02:15;16.77;;;13.87;;
14748;SDS011;7466;53.574;9.976;2023-11-21T02:04:42;17.73;;;14.60;;
14748;SDS011;7466;53.574;9.976;2023-11-21T02:07:10;15.70;;;12.90;;
14748;SDS011;7466;53.574;9.976;2023-11-21T02:09:37;15.37;;;13.67;;
14748;SDS011;7466;53.574;9.976;2023-11-21T02:12:07;14.90;;;12.63;;
14748;SDS011;7466;53.574;9.976;2023-11-21T02:14:35;17.03;;;13.07;;
14748;SDS011;7466;53.574;9.976;2023-11-21T02:17:02;17.17;;;11.77;;
14748;SDS011;7466;53.574;9.976;2023-11-21T02:19:29;13.60;;;12.17;;
14748;SDS011;7466;53.574;9.976;2023-11-21T02:21:57;13.80;;;11.40;;
14748;SDS011;7466;53.574;9.976;2023-11-21T02:24:31;11.83;;;10.67;;
14748;SDS011;7466;53.574;9.976;2023-11-21T02:26:57;12.27;;;10.43;;
14748;SDS011;7466;53.574;9.976;2023-11-21T02:29:25;15.07;;;10.80;;
14748;SDS011;7466;53.574;9.976;2023-11-21T02:31:53;11.67;;;10.47;;
14748;SDS011;7466;53.574;9.976;2023-11-21T02:34:21;12.23;;;10.73;;
14748;SDS011;7466;53.574;9.976;2023-11-21T02:36:48;11.77;;;10.67;;
14748;SDS011;7466;53.574;9.976;2023-11-21T02:39:16;11.40;;;10.17;;
14748;SDS011;7466;53.574;9.976;2023-11-21T02:41:48;10.80;;;9.80;;
14748;SDS011;7466;53.574;9.976;2023-11-21T02:44:15;11.40;;;10.23;;
14748;SDS011;7466;53.574;9.976;2023-11-21T02:46:42;12.63;;;9.93;;
14748;SDS011;7466;53.574;9.976;2023-11-21T02:49:08;11.83;;;10.60;;
14748;SDS011;7466;53.574;9.976;2023-11-21T02:51:35;10.93;;;9.93;;
14748;SDS011;7466;53.574;9.976;2023-11-21T02:54:03;11.00;;;9.90;;
14748;SDS011;7466;53.574;9.976;2023-11-21T02:56:31;10.67;;;9.67;;
14748;SDS011;7466;53.574;9.976;2023-11-21T02:59:00;10.83;;;9.93;;
14748;SDS011;7466;53.574;9.976;2023-11-21T03:01:27;10.90;;;9.90;;
14748;SDS011;7466;53.574;9.976;2023-11-21T03:03:54;11.80;;;10.60;;
14748;SDS011;7466;53.574;9.976;2023-11-21T03:06:21;11.00;;;9.90;;
14748;SDS011;7466;53.574;9.976;2023-11-21T03:08:48;11.50;;;10.27;;
14748;SDS011;7466;53.574;9.976;2023-11-21T03:11:15;10.90;;;9.73;;
14748;SDS011;7466;53.574;9.976;2023-11-21T03:13:42;11.20;;;10.17;;
14748;SDS011;7466;53.574;9.976;2023-11-21T03:16:11;12.20;;;11.00;;
14748;SDS011;7466;53.574;9.976;2023-11-21T03:18:38;11.03;;;10.03;;
14748;SDS011;7466;53.574;9.976;2023-11-21T03:21:05;10.70;;;9.60;;
14748;SDS011;7466;53.574;9.976;2023-11-21T03:23:33;10.97;;;9.70;;
14748;SDS011;7466;53.574;9.976;2023-11-21T03:26:00;12.43;;;11.10;;
14748;SDS011;7466;53.574;9.976;2023-11-21T03:28:27;11.93;;;10.80;;
14748;SDS011;7466;53.574;9.976;2023-11-21T03:30:55;11.27;;;10.17;;
14748;SDS011;7466;53.574;9.976;2023-11-21T03:33:23;12.20;;;10.03;;
14748;SDS011;7466;53.574;9.976;2023-11-21T03:35:50;11.73;;;10.40;;
14748;SDS011;7466;53.574;9.976;2023-11-21T03:38:17;12.27;;;10.80;;
14748;SDS011;7466;53.574;9.976;2023-11-21T03:40:45;11.67;;;10.47;;
14748;SDS011;7466;53.574;9.976;2023-11-21T03:43:13;11.63;;;10.50;;
14748;SDS011;7466;53.574;9.976;2023-11-21T03:45:39;11.53;;;10.40;;
14748;SDS011;7466;53.574;9.976;2023-11-21T03:48:06;10.83;;;9.73;;
14748;SDS011;7466;53.574;9.976;2023-11-21T03:50:35;11.13;;;10.13;;
14748;SDS011;7466;53.574;9.976;2023-11-21T03:53:01;11.37;;;10.17;;
14748;SDS011;7466;53.574;9.976;2023-11-21T03:55:28;11.13;;;10.13;;
14748;SDS011;7466;53.574;9.976;2023-11-21T03:57:56;11.13;;;9.77;;
14748;SDS011;7466;53.574;9.976;2023-11-21T04:00:23;11.93;;;10.60;;
14748;SDS011;7466;53.574;9.976;2023-11-21T04:02:51;11.93;;;10.70;;
14748;SDS011;7466;53.574;9.976;2023-11-21T04:05:19;12.10;;;10.77;;
14748;SDS011;7466;53.574;9.976;2023-11-21T04:07:47;12.33;;;11.07;;
14748;SDS011;7466;53.574;9.976;2023-11-21T04:10:14;11.90;;;10.70;;
14748;SDS011;7466;53.574;9.976;2023-11-21T04:12:41;11.63;;;10.57;;
14748;SDS011;7466;53.574;9.976;2023-11-21T04:15:08;11.80;;;10.40;;
14748;SDS011;7466;53.574;9.976;2023-11-21T04:17:36;11.57;;;10.33;;
14748;SDS011;7466;53.574;9.976;2023-11-21T04:20:02;12.63;;;11.40;;
14748;SDS011;7466;53.574;9.976;2023-11-21T04:22:33;12.40;;;11.13;;
14748;SDS011;7466;53.574;9.976;2023-11-21T04:25:01;12.03;;;11.00;;
14748;SDS011;7466;53.574;9.976;2023-11-21T04:27:28;12.87;;;11.60;;
14748;SDS011;7466;53.574;9.976;2023-11-21T04:29:55;12.57;;;11.23;;
14748;SDS011;7466;53.574;9.976;2023-11-21T04:32:21;14.47;;;11.83;;
14748;SDS011;7466;53.574;9.976;2023-11-21T04:34:48;16.17;;;11.43;;
14748;SDS011;7466;53.574;9.976;2023-11-21T04:37:15;13.53;;;11.30;;
14748;SDS011;7466;53.574;9.976;2023-11-21T04:39:41;12.03;;;10.47;;
14748;SDS011;7466;53.574;9.976;2023-11-21T04:42:09;13.20;;;11.90;;
14748;SDS011;7466;53.574;9.976;2023-11-21T04:44:37;11.80;;;10.67;;
14748;SDS011;7466;53.574;9.976;2023-11-21T04:47:06;12.07;;;10.80;;
14748;SDS011;7466;53.574;9.976;2023-11-21T04:49:32;11.77;;;10.60;;
14748;SDS011;7466;53.574;9.976;2023-11-21T04:51:59;14.10;;;11.27;;
14748;SDS011;7466;53.574;9.976;2023-11-21T04:54:26;11.53;;;10.47;;
14748;SDS011;7466;53.574;9.976;2023-11-21T04:56:53;14.30;;;11.00;;
14748;SDS011;7466;53.574;9.976;2023-11-21T04:59:21;11.90;;;10.80;;
14748;SDS011;7466;53.574;9.976;2023-11-21T05:01:49;12.07;;;10.97;;
14748;SDS011;7466;53.574;9.976;2023-11-21T05:04:16;12.30;;;11.20;;
14748;SDS011;7466;53.574;9.976;2023-11-21T05:06:43;12.13;;;10.97;;
14748;SDS011;7466;53.574;9.976;2023-11-21T05:09:09;13.30;;;10.73;;
14748;SDS011;7466;53.574;9.976;2023-11-21T05:11:37;12.30;;;11.10;;
14748;SDS011;7466;53.574;9.976;2023-11-21T05:14:04;11.90;;;10.80;;
14748;SDS011;7466;53.574;9.976;2023-11-21T05:16:33;12.53;;;11.00;;
14748;SDS011;7466;53.574;9.976;2023-11-21T05:19:00;13.40;;;11.60;;
14748;SDS011;7466;53.574;9.976;2023-11-21T05:21:27;12.00;;;10.80;;
14748;SDS011;7466;53.574;9.976;2023-11-21T05:23:54;12.83;;;10.43;;
14748;SDS011;7466;53.574;9.976;2023-11-21T05:26:21;11.60;;;10.40;;
14748;SDS011;7466;53.574;9.976;2023-11-21T05:28:48;11.67;;;10.67;;
14748;SDS011;7466;53.574;9.976;2023-11-21T05:31:15;11.80;;;10.60;;
14748;SDS011;7466;53.574;9.976;2023-11-21T05:33:43;12.77;;;11.00;;
14748;SDS011;7466;53.574;9.976;2023-11-21T05:36:09;11.63;;;10.53;;
14748;SDS011;7466;53.574;9.976;2023-11-21T05:38:36;11.47;;;10.47;;
14748;SDS011;7466;53.574;9.976;2023-11-21T05:41:03;10.87;;;9.93;;
14748;SDS011;7466;53.574;9.976;2023-11-21T05:43:30;11.40;;;9.87;;
14748;SDS011;7466;53.574;9.976;2023-11-21T05:45:57;12.53;;;10.87;;
14748;SDS011;7466;53.574;9.976;2023-11-21T05:48:24;11.73;;;10.63;;
14748;SDS011;7466;53.574;9.976;2023-11-21T05:50:53;12.00;;;10.80;;
14748;SDS011;7466;53.574;9.976;2023-11-21T05:53:19;11.73;;;10.53;;
14748;SDS011;7466;53.574;9.976;2023-11-21T05:55:46;12.00;;;10.80;;
14748;SDS011;7466;53.574;9.976;2023-11-21T05:58:13;11.27;;;10.13;;
14748;SDS011;7466;53.574;9.976;2023-11-21T06:00:40;10.20;;;9.40;;
14748;SDS011;7466;53.574;9.976;2023-11-21T06:03:07;11.17;;;10.17;;
14748;SDS011;7466;53.574;9.976;2023-11-21T06:05:33;11.50;;;10.07;;
14748;SDS011;7466;53.574;9.976;2023-11-21T06:08:02;10.43;;;9.43;;
14748;SDS011;7466;53.574;9.976;2023-11-21T06:10:29;11.73;;;10.73;;
14748;SDS011;7466;53.574;9.976;2023-11-21T06:12:55;11.03;;;10.13;;
14748;SDS011;7466;53.574;9.976;2023-11-21T06:15:22;11.63;;;10.43;;
14748;SDS011;7466;53.574;9.976;2023-11-21T06:17:49;11.40;;;10.30;;
14748;SDS011;7466;53.574;9.976;2023-11-21T06:20:18;11.03;;;10.13;;
14748;SDS011;7466;53.574;9.976;2023-11-21T06:22:46;12.57;;;11.30;;
14748;SDS011;7466;53.574;9.976;2023-11-21T06:25:16;12.10;;;10.93;;
14748;SDS011;7466;53.574;9.976;2023-11-21T06:27:43;11.97;;;10.80;;
14748;SDS011;7466;53.574;9.976;2023-11-21T06:30:11;12.13;;;10.93;;
14748;SDS011;7466;53.574;9.976;2023-11-21T06:32:40;11.40;;;10.30;;
14748;SDS011;7466;53.574;9.976;2023-11-21T06:35:10;11.93;;;10.70;;
14748;SDS011;7466;53.574;9.976;2023-11-21T06:37:38;11.57;;;10.37;;
14748;SDS011;7466;53.574;9.976;2023-11-21T06:40:05;11.23;;;10.23;;
14748;SDS011;7466;53.574;9.976;2023-11-21T06:42:36;11.30;;;10.20;;
14748;SDS011;7466;53.574;9.976;2023-11-21T06:45:03;12.43;;;10.80;;
14748;SDS011;7466;53.574;9.976;2023-11-21T06:47:31;12.00;;;10.80;;
14748;SDS011;7466;53.574;9.976;2023-11-21T06:49:58;11.27;;;10.17;;
14748;SDS011;7466;53.574;9.976;2023-11-21T06:52:25;12.67;;;11.40;;
14748;SDS011;7466;53.574;9.976;2023-11-21T06:54:52;11.53;;;10.40;;
14748;SDS011;7466;53.574;9.976;2023-11-21T06:57:19;11.67;;;10.50;;
14748;SDS011;7466;53.574;9.976;2023-11-21T06:59:48;11.33;;;10.03;;
14748;SDS011;7466;53.574;9.976;2023-11-21T07:02:15;11.40;;;10.27;;
14748;SDS011;7466;53.574;9.976;2023-11-21T07:04:43;11.50;;;10.40;;
14748;SDS011;7466;53.574;9.976;2023-11-21T07:07:10;10.77;;;9.73;;
14748;SDS011;7466;53.574;9.976;2023-11-21T07:09:36;10.97;;;9.87;;
14748;SDS011;7466;53.574;9.976;2023-11-21T07:12:03;11.13;;;10.10;;
14748;SDS011;7466;53.574;9.976;2023-11-21T07:14:32;10.97;;;9.83;;
14748;SDS011;7466;53.574;9.976;2023-11-21T07:17:00;13.77;;;10.33;;
14748;SDS011;7466;53.574;9.976;2023-11-21T07:19:27;10.53;;;9.67;;
14748;SDS011;7466;53.574;9.976;2023-11-21T07:21:54;10.90;;;9.80;;
14748;SDS011;7466;53.574;9.976;2023-11-21T07:24:21;11.67;;;10.67;;
14748;SDS011;7466;53.574;9.976;2023-11-21T07:26:48;10.73;;;9.70;;
14748;SDS011;7466;53.574;9.976;2023-11-21T07:29:15;11.87;;;10.57;;
14748;SDS011;7466;53.574;9.976;2023-11-21T07:31:42;10.53;;;9.73;;
14748;SDS011;7466;53.574;9.976;2023-11-21T07:34:10;11.17;;;10.10;;
14748;SDS011;7466;53.574;9.976;2023-11-21T07:36:37;10.13;;;9.20;;
14748;SDS011;7466;53.574;9.976;2023-11-21T07:39:04;10.20;;;9.17;;
14748;SDS011;7466;53.574;9.976;2023-11-21T07:41:31;9.90;;;9.10;;
14748;SDS011;7466;53.574;9.976;2023-11-21T07:43:58;11.03;;;9.60;;
14748;SDS011;7466;53.574;9.976;2023-11-21T07:46:25;10.03;;;9.13;;
14748;SDS011;7466;53.574;9.976;2023-11-21T07:48:52;10.97;;;9.97;;
14748;SDS011;7466;53.574;9.976;2023-11-21T07:51:21;12.23;;;9.23;;
14748;SDS011;7466;53.574;9.976;2023-11-21T07:53:48;11.07;;;9.87;;
14748;SDS011;7466;53.574;9.976;2023-11-21T07:56:15;10.23;;;9.00;;
14748;SDS011;7466;53.574;9.976;2023-11-21T07:58:41;10.30;;;9.33;;
14748;SDS011;7466;53.574;9.976;2023-11-21T08:01:09;9.20;;;8.43;;
14748;SDS011;7466;53.574;9.976;2023-11-21T08:03:36;9.80;;;8.47;;
14748;SDS011;7466;53.574;9.976;2023-11-21T08:06:03;9.23;;;7.87;;
14748;SDS011;7466;53.574;9.976;2023-11-21T08:08:32;8.53;;;7.83;;
14748;SDS011;7466;53.574;9.976;2023-11-21T08:10:58;9.53;;;8.53;;
14748;SDS011;7466;53.574;9.976;2023-11-21T08:13:26;7.83;;;7.23;;
14748;SDS011;7466;53.574;9.976;2023-11-21T08:15:55;9.10;;;7.23;;
14748;SDS011;7466;53.574;9.976;2023-11-21T08:18:26;7.43;;;6.90;;
14748;SDS011;7466;53.574;9.976;2023-11-21T08:20:54;9.03;;;7.40;;
14748;SDS011;7466;53.574;9.976;2023-11-21T08:23:21;7.37;;;6.77;;
14748;SDS011;7466;53.574;9.976;2023-11-21T08:25:51;8.07;;;7.27;;
14748;SDS011;7466;53.574;9.976;2023-11-21T08:28:18;7.00;;;6.50;;
14748;SDS011;7466;53.574;9.976;2023-11-21T08:30:47;7.10;;;6.53;;
14748;SDS011;7466;53.574;9.976;2023-11-21T08:33:14;6.67;;;6.17;;
14748;SDS011;7466;53.574;9.976;2023-11-21T08:35:40;6.97;;;6.23;;
14748;SDS011;7466;53.574;9.976;2023-11-21T08:38:07;8.10;;;6.10;;
14748;SDS011;7466;53.574;9.976;2023-11-21T08:40:35;7.13;;;5.60;;
14748;SDS011;7466;53.574;9.976;2023-11-21T08:43:03;6.37;;;5.77;;
14748;SDS011;7466;53.574;9.976;2023-11-21T08:45:30;6.10;;;5.50;;
14748;SDS011;7466;53.574;9.976;2023-11-21T08:47:59;7.57;;;5.97;;
14748;SDS011;7466;53.574;9.976;2023-11-21T08:50:25;6.70;;;6.00;;
14748;SDS011;7466;53.574;9.976;2023-11-21T08:52:53;6.10;;;5.50;;
14748;SDS011;7466;53.574;9.976;2023-11-21T08:55:20;5.53;;;5.13;;
14748;SDS011;7466;53.574;9.976;2023-11-21T08:57:47;5.33;;;4.77;;
14748;SDS011;7466;53.574;9.976;2023-11-21T09:00:16;5.20;;;4.80;;
14748;SDS011;7466;53.574;9.976;2023-11-21T09:02:44;5.13;;;4.70;;
14748;SDS011;7466;53.574;9.976;2023-11-21T09:05:12;5.23;;;4.73;;
14748;SDS011;7466;53.574;9.976;2023-11-21T09:07:40;5.60;;;5.20;;
14748;SDS011;7466;53.574;9.976;2023-11-21T09:10:08;5.70;;;5.20;;
14748;SDS011;7466;53.574;9.976;2023-11-21T09:12:35;6.13;;;5.73;;
14748;SDS011;7466;53.574;9.976;2023-11-21T09:15:03;7.00;;;6.33;;
14748;SDS011;7466;53.574;9.976;2023-11-21T09:17:32;6.13;;;5.73;;
14748;SDS011;7466;53.574;9.976;2023-11-21T09:19:59;6.50;;;6.00;;
14748;SDS011;7466;53.574;9.976;2023-11-21T09:22:26;6.47;;;5.90;;
14748;SDS011;7466;53.574;9.976;2023-11-21T09:24:54;10.70;;;5.97;;
14748;SDS011;7466;53.574;9.976;2023-11-21T09:27:21;6.13;;;5.70;;
14748;SDS011;7466;53.574;9.976;2023-11-21T09:29:48;6.53;;;6.03;;
14748;SDS011;7466;53.574;9.976;2023-11-21T09:32:15;9.10;;;6.73;;
14748;SDS011;7466;53.574;9.976;2023-11-21T09:34:45;6.90;;;6.20;;
14748;SDS011;7466;53.574;9.976;2023-11-21T09:37:11;6.67;;;6.10;;
14748;SDS011;7466;53.574;9.976;2023-11-21T09:39:38;9.87;;;5.50;;
14748;SDS011;7466;53.574;9.976;2023-11-21T09:42:08;5.50;;;5.00;;
14748;SDS011;7466;53.574;9.976;2023-11-21T09:44:40;5.40;;;4.90;;
14748;SDS011;7466;53.574;9.976;2023-11-21T09:47:14;5.20;;;4.70;;
14748;SDS011;7466;53.574;9.976;2023-11-21T09:49:42;8.00;;;5.80;;
14748;SDS011;7466;53.574;9.976;2023-11-21T09:52:15;9.97;;;5.03;;
14748;SDS011;7466;53.574;9.976;2023-11-21T09:54:50;7.23;;;5.83;;
14748;SDS011;7466;53.574;9.976;2023-11-21T09:57:18;5.50;;;5.00;;
14748;SDS011;7466;53.574;9.976;2023-11-21T09:59:46;4.93;;;4.43;;
14748;SDS011;7466;53.574;9.976;2023-11-21T10:02:16;4.73;;;4.33;;
14748;SDS011;7466;53.574;9.976;2023-11-21T10:04:46;4.60;;;4.30;;
14748;SDS011;7466;53.574;9.976;2023-11-21T10:07:13;4.40;;;4.10;;
14748;SDS011;7466;53.574;9.976;2023-11-21T10:09:43;4.37;;;4.07;;
14748;SDS011;7466;53.574;9.976;2023-11-21T10:12:10;4.40;;;4.10;;
14748;SDS011;7466;53.574;9.976;2023-11-21T10:14:40;4.30;;;4.00;;
14748;SDS011;7466;53.574;9.976;2023-11-21T10:17:08;4.23;;;3.83;;
14748;SDS011;7466;53.574;9.976;2023-11-21T10:19:38;4.10;;;3.80;;
14748;SDS011;7466;53.574;9.976;2023-11-21T10:22:06;4.80;;;4.40;;
14748;SDS011;7466;53.574;9.976;2023-11-21T10:24:34;3.97;;;3.67;;
14748;SDS011;7466;53.574;9.976;2023-11-21T10:27:02;4.00;;;3.57;;
14748;SDS011;7466;53.574;9.976;2023-11-21T10:29:29;3.83;;;3.60;;
14748;SDS011;7466;53.574;9.976;2023-11-21T10:32:00;5.20;;;4.33;;
14748;SDS011;7466;53.574;9.976;2023-11-21T10:34:28;4.77;;;3.57;;
14748;SDS011;7466;53.574;9.976;2023-11-21T10:36:55;4.03;;;3.57;;
14748;SDS011;7466;53.574;9.976;2023-11-21T10:39:24;3.80;;;3.47;;
14748;SDS011;7466;53.574;9.976;2023-11-21T10:41:55;3.53;;;3.23;;
14748;SDS011;7466;53.574;9.976;2023-11-21T10:44:22;3.60;;;3.27;;
14748;SDS011;7466;53.574;9.976;2023-11-21T10:46:51;3.70;;;3.40;;
14748;SDS011;7466;53.574;9.976;2023-11-21T10:49:21;5.10;;;3.77;;
14748;SDS011;7466;53.574;9.976;2023-11-21T10:51:49;3.10;;;2.90;;
14748;SDS011;7466;53.574;9.976;2023-11-21T10:54:18;3.50;;;3.30;;
14748;SDS011;7466;53.574;9.976;2023-11-21T10:56:47;3.37;;;3.07;;
14748;SDS011;7466;53.574;9.976;2023-11-21T10:59:16;3.60;;;3.20;;
14748;SDS011;7466;53.574;9.976;2023-11-21T11:01:44;3.70;;;3.40;;
14748;SDS011;7466;53.574;9.976;2023-11-21T11:04:12;3.63;;;3.33;;
14748;SDS011;7466;53.574;9.976;2023-11-21T11:06:42;3.73;;;3.53;;
14748;SDS011;7466;53.574;9.976;2023-11-21T11:09:10;3.50;;;3.20;;
14748;SDS011;7466;53.574;9.976;2023-11-21T11:11:39;3.80;;;3.50;;
14748;SDS011;7466;53.574;9.976;2023-11-21T11:14:07;4.23;;;3.83;;
14748;SDS011;7466;53.574;9.976;2023-11-21T11:16:37;3.70;;;3.40;;
14748;SDS011;7466;53.574;9.976;2023-11-21T11:19:06;4.00;;;3.57;;
14748;SDS011;7466;53.574;9.976;2023-11-21T11:21:36;4.93;;;4.43;;
14748;SDS011;7466;53.574;9.976;2023-11-21T11:24:13;3.77;;;3.30;;
14748;SDS011;7466;53.574;9.976;2023-11-21T11:27:01;3.93;;;3.63;;
14748;SDS011;7466;53.574;9.976;2023-11-21T11:29:41;3.83;;;3.53;;
14748;SDS011;7466;53.574;9.976;2023-11-21T11:32:16;3.83;;;3.50;;
14748;SDS011;7466;53.574;9.976;2023-11-21T11:34:54;3.70;;;3.40;;
14748;SDS011;7466;53.574;9.976;2023-11-21T11:37:25;3.50;;;3.20;;
14748;SDS011;7466;53.574;9.976;2023-11-21T11:39:52;3.73;;;3.17;;
14748;SDS011;7466;53.574;9.976;2023-11-21T11:42:19;3.80;;;3.50;;
14748;SDS011;7466;53.574;9.976;2023-11-21T11:44:50;3.50;;;3.30;;
14748;SDS011;7466;53.574;9.976;2023-11-21T11:47:20;4.03;;;3.50;;
14748;SDS011;7466;53.574;9.976;2023-11-21T11:49:56;4.17;;;3.20;;
14748;SDS011;7466;53.574;9.976;2023-11-21T11:52:32;3.73;;;3.43;;
14748;SDS011;7466;53.574;9.976;2023-11-21T11:55:02;3.87;;;3.57;;
14748;SDS011;7466;53.574;9.976;2023-11-21T11:57:30;4.03;;;3.13;;
14748;SDS011;7466;53.574;9.976;2023-11-21T12:00:08;4.50;;;3.50;;
14748;SDS011;7466;53.574;9.976;2023-11-21T12:02:36;3.77;;;3.37;;
14748;SDS011;7466;53.574;9.976;2023-11-21T12:05:08;3.40;;;3.20;;
14748;SDS011;7466;53.574;9.976;2023-11-21T12:07:39;4.50;;;3.60;;
14748;SDS011;7466;53.574;9.976;2023-11-21T12:10:12;4.20;;;3.80;;
14748;SDS011;7466;53.574;9.976;2023-11-21T12:12:43;5.10;;;3.57;;
14748;SDS011;7466;53.574;9.976;2023-11-21T12:15:13;4.47;;;3.80;;
14748;SDS011;7466;53.574;9.976;2023-11-21T12:17:41;4.90;;;3.87;;
14748;SDS011;7466;53.574;9.976;2023-11-21T12:20:09;4.47;;;3.70;;
14748;SDS011;7466;53.574;9.976;2023-11-21T12:22:41;3.93;;;3.20;;
14748;SDS011;7466;53.574;9.976;2023-11-21T12:25:09;3.77;;;3.43;;
14748;SDS011;7466;53.574;9.976;2023-11-21T12:27:41;4.03;;;3.37;;
14748;SDS011;7466;53.574;9.976;2023-11-21T12:30:12;4.00;;;3.43;;
14748;SDS011;7466;53.574;9.976;2023-11-21T12:32:41;3.40;;;3.20;;
14748;SDS011;7466;53.574;9.976;2023-11-21T12:35:08;5.23;;;3.40;;
14748;SDS011;7466;53.574;9.976;2023-11-21T12:37:36;3.77;;;3.47;;
14748;SDS011;7466;53.574;9.976;2023-11-21T12:40:05;3.70;;;3.40;;
14748;SDS011;7466;53.574;9.976;2023-11-21T12:42:32;3.30;;;3.10;;
14748;SDS011;7466;53.574;9.976;2023-11-21T12:45:07;4.70;;;3.97;;
14748;SDS011;7466;53.574;9.976;2023-11-21T12:47:40;3.80;;;3.50;;
14748;SDS011;7466;53.574;9.976;2023-11-21T12:50:08;3.53;;;3.20;;
14748;SDS011;7466;53.574;9.976;2023-11-21T12:52:40;5.00;;;3.20;;
14748;SDS011;7466;53.574;9.976;2023-11-21T12:55:15;3.90;;;3.60;;
14748;SDS011;7466;53.574;9.976;2023-11-21T12:57:44;4.07;;;3.30;;
14748;SDS011;7466;53.574;9.976;2023-11-21T13:00:12;4.27;;;3.87;;
14748;SDS011;7466;53.574;9.976;2023-11-21T13:02:53;5.70;;;3.70;;
14748;SDS011;7466;53.574;9.976;2023-11-21T13:05:25;5.40;;;3.93;;
14748;SDS011;7466;53.574;9.976;2023-11-21T13:07:53;5.43;;;3.83;;
14748;SDS011;7466;53.574;9.976;2023-11-21T13:10:22;4.07;;;3.70;;
14748;SDS011;7466;53.574;9.976;2023-11-21T13:12:54;4.83;;;4.43;;
14748;SDS011;7466;53.574;9.976;2023-11-21T13:15:23;4.17;;;3.77;;
14748;SDS011;7466;53.574;9.976;2023-11-21T13:17:50;4.10;;;3.80;;
14748;SDS011;7466;53.574;9.976;2023-11-21T13:20:20;4.10;;;3.80;;
14748;SDS011;7466;53.574;9.976;2023-11-21T13:22:47;4.83;;;3.50;;
14748;SDS011;7466;53.574;9.976;2023-11-21T13:25:15;4.10;;;3.53;;
14748;SDS011;7466;53.574;9.976;2023-11-21T13:27:44;4.03;;;3.70;;
14748;SDS011;7466;53.574;9.976;2023-11-21T13:30:12;4.50;;;4.10;;
14748;SDS011;7466;53.574;9.976;2023-11-21T13:32:41;4.50;;;4.10;;
14748;SDS011;7466;53.574;9.976;2023-11-21T13:35:08;5.43;;;4.00;;
14748;SDS011;7466;53.574;9.976;2023-11-21T13:37:46;4.00;;;3.70;;
14748;SDS011;7466;53.574;9.976;2023-11-21T13:40:16;4.33;;;4.03;;
14748;SDS011;7466;53.574;9.976;2023-11-21T13:42:48;4.10;;;3.80;;
14748;SDS011;7466;53.574;9.976;2023-11-21T13:45:18;4.40;;;3.53;;
14748;SDS011;7466;53.574;9.976;2023-11-21T13:47:47;3.90;;;3.60;;
14748;SDS011;7466;53.574;9.976;2023-11-21T13:50:16;3.80;;;3.47;;
14748;SDS011;7466;53.574;9.976;2023-11-21T13:52:49;4.07;;;3.70;;
14748;SDS011;7466;53.574;9.976;2023-11-21T13:55:18;5.90;;;4.00;;
14748;SDS011;7466;53.574;9.976;2023-11-21T13:57:45;4.53;;;3.50;;
14748;SDS011;7466;53.574;9.976;2023-11-21T14:00:15;4.17;;;3.60;;
14748;SDS011;7466;53.574;9.976;2023-11-21T14:02:56;3.47;;;3.17;;
14748;SDS011;7466;53.574;9.976;2023-11-21T14:05:25;4.47;;;3.40;;
14748;SDS011;7466;53.574;9.976;2023-11-21T14:07:55;3.83;;;3.43;;
14748;SDS011;7466;53.574;9.976;2023-11-21T14:10:28;3.50;;;3.30;;
14748;SDS011;7466;53.574;9.976;2023-11-21T14:13:02;4.00;;;3.50;;
14748;SDS011;7466;53.574;9.976;2023-11-21T14:15:29;3.77;;;3.30;;
14748;SDS011;7466;53.574;9.976;2023-11-21T14:17:58;4.00;;;3.60;;
14748;SDS011;7466;53.574;9.976;2023-11-21T14:20:27;3.57;;;3.27;;
14748;SDS011;7466;53.574;9.976;2023-11-21T14:22:56;4.67;;;3.40;;
14748;SDS011;7466;53.574;9.976;2023-11-21T14:25:23;3.73;;;3.53;;
14748;SDS011;7466;53.574;9.976;2023-11-21T14:27:51;3.97;;;3.60;;
14748;SDS011;7466;53.574;9.976;2023-11-21T14:30:18;4.87;;;3.60;;
14748;SDS011;7466;53.574;9.976;2023-11-21T14:32:47;4.63;;;3.97;;
14748;SDS011;7466;53.574;9.976;2023-11-21T14:35:15;3.57;;;3.27;;
14748;SDS011;7466;53.574;9.976;2023-11-21T14:37:42;4.07;;;3.67;;
14748;SDS011;7466;53.574;9.976;2023-11-21T14:40:11;4.00;;;3.37;;
14748;SDS011;7466;53.574;9.976;2023-11-21T14:42:40;2.90;;;2.70;;
14748;SDS011;7466;53.574;9.976;2023-11-21T14:45:08;3.00;;;2.80;;
14748;SDS011;7466;53.574;9.976;2023-11-21T14:47:37;4.13;;;3.10;;
14748;SDS011;7466;53.574;9.976;2023-11-21T14:50:09;2.90;;;2.70;;
14748;SDS011;7466;53.574;9.976;2023-11-21T14:53:06;3.20;;;2.90;;
14748;SDS011;7466;53.574;9.976;2023-11-21T14:55:35;5.13;;;3.10;;
14748;SDS011;7466;53.574;9.976;2023-11-21T14:58:17;3.00;;;2.80;;